<?xml version="1.0" encoding="UTF-8" standalone="no" ?>
<gpx xmlns="http://www.topografix.com/GPX/1/1" xmlns:xsi="http://www.w3.org/2001/XMLSchema-instance" xsi:schemaLocation="http://www.topografix.com/GPX/1/1 http://www.topografix.com/GPX/1/1/gpx.xsd" version="1.1" creator="VisuGPX - https://www.visugpx.com">
  <metadata>
    <name>Lac de Bonlieu</name>
    <desc><![CDATA[tour du lac]]></desc>
  </metadata>
  <trk>
    <name><![CDATA[22-JUIL-13 17:36:52]]></name>
    <trkseg>
      <trkpt lat="46.58954" lon="5.87595">
        <ele>802.84</ele>
        <time>2013-07-22T13:57:27Z</time>
      </trkpt>
      <trkpt lat="46.58954" lon="5.87594">
        <ele>801.4</ele>
        <time>2013-07-22T13:57:28Z</time>
      </trkpt>
      <trkpt lat="46.58954" lon="5.87593">
        <ele>802.36</ele>
        <time>2013-07-22T13:57:30Z</time>
      </trkpt>
      <trkpt lat="46.58954" lon="5.87592">
        <ele>836.48</ele>
        <time>2013-07-22T13:57:34Z</time>
      </trkpt>
      <trkpt lat="46.58953" lon="5.87592">
        <ele>836.48</ele>
        <time>2013-07-22T13:57:35Z</time>
      </trkpt>
      <trkpt lat="46.58954" lon="5.87602">
        <ele>835.52</ele>
        <time>2013-07-22T13:57:58Z</time>
      </trkpt>
      <trkpt lat="46.58949" lon="5.87605">
        <ele>835.04</ele>
        <time>2013-07-22T13:58:15Z</time>
      </trkpt>
      <trkpt lat="46.58938" lon="5.87599">
        <ele>836</ele>
        <time>2013-07-22T13:58:34Z</time>
      </trkpt>
      <trkpt lat="46.58927" lon="5.87594">
        <ele>833.6</ele>
        <time>2013-07-22T13:58:48Z</time>
      </trkpt>
      <trkpt lat="46.58922" lon="5.87582">
        <ele>832.16</ele>
        <time>2013-07-22T13:59:02Z</time>
      </trkpt>
      <trkpt lat="46.58922" lon="5.87577">
        <ele>831.68</ele>
        <time>2013-07-22T13:59:12Z</time>
      </trkpt>
      <trkpt lat="46.58925" lon="5.87576">
        <ele>832.16</ele>
        <time>2013-07-22T13:59:39Z</time>
      </trkpt>
      <trkpt lat="46.5893" lon="5.8757">
        <ele>832.16</ele>
        <time>2013-07-22T14:00:04Z</time>
      </trkpt>
      <trkpt lat="46.58917" lon="5.87574">
        <ele>831.68</ele>
        <time>2013-07-22T14:00:38Z</time>
      </trkpt>
      <trkpt lat="46.58906" lon="5.87586">
        <ele>832.64</ele>
        <time>2013-07-22T14:01:04Z</time>
      </trkpt>
      <trkpt lat="46.58904" lon="5.87592">
        <ele>833.12</ele>
        <time>2013-07-22T14:01:24Z</time>
      </trkpt>
      <trkpt lat="46.58895" lon="5.87599">
        <ele>833.12</ele>
        <time>2013-07-22T14:01:41Z</time>
      </trkpt>
      <trkpt lat="46.58879" lon="5.87602">
        <ele>832.16</ele>
        <time>2013-07-22T14:01:56Z</time>
      </trkpt>
      <trkpt lat="46.58871" lon="5.87601">
        <ele>832.16</ele>
        <time>2013-07-22T14:02:10Z</time>
      </trkpt>
      <trkpt lat="46.58868" lon="5.87605">
        <ele>830.72</ele>
        <time>2013-07-22T14:02:29Z</time>
      </trkpt>
      <trkpt lat="46.58871" lon="5.87618">
        <ele>830.72</ele>
        <time>2013-07-22T14:03:11Z</time>
      </trkpt>
      <trkpt lat="46.58868" lon="5.8761">
        <ele>830.72</ele>
        <time>2013-07-22T14:03:14Z</time>
      </trkpt>
      <trkpt lat="46.58855" lon="5.87608">
        <ele>830.72</ele>
        <time>2013-07-22T14:03:27Z</time>
      </trkpt>
      <trkpt lat="46.58847" lon="5.87616">
        <ele>830.24</ele>
        <time>2013-07-22T14:03:41Z</time>
      </trkpt>
      <trkpt lat="46.58848" lon="5.87626">
        <ele>830.24</ele>
        <time>2013-07-22T14:04:09Z</time>
      </trkpt>
      <trkpt lat="46.58841" lon="5.87616">
        <ele>830.72</ele>
        <time>2013-07-22T14:04:28Z</time>
      </trkpt>
      <trkpt lat="46.58841" lon="5.87609">
        <ele>829.76</ele>
        <time>2013-07-22T14:04:42Z</time>
      </trkpt>
      <trkpt lat="46.58836" lon="5.87607">
        <ele>830.24</ele>
        <time>2013-07-22T14:05:06Z</time>
      </trkpt>
      <trkpt lat="46.58823" lon="5.87619">
        <ele>831.68</ele>
        <time>2013-07-22T14:05:21Z</time>
      </trkpt>
      <trkpt lat="46.58811" lon="5.87623">
        <ele>831.68</ele>
        <time>2013-07-22T14:05:35Z</time>
      </trkpt>
      <trkpt lat="46.58798" lon="5.87622">
        <ele>831.2</ele>
        <time>2013-07-22T14:05:55Z</time>
      </trkpt>
      <trkpt lat="46.58796" lon="5.87623">
        <ele>831.2</ele>
        <time>2013-07-22T14:05:57Z</time>
      </trkpt>
      <trkpt lat="46.58782" lon="5.8763">
        <ele>831.2</ele>
        <time>2013-07-22T14:06:13Z</time>
      </trkpt>
      <trkpt lat="46.58777" lon="5.8763">
        <ele>830.72</ele>
        <time>2013-07-22T14:06:18Z</time>
      </trkpt>
      <trkpt lat="46.58763" lon="5.87622">
        <ele>830.72</ele>
        <time>2013-07-22T14:06:30Z</time>
      </trkpt>
      <trkpt lat="46.5875" lon="5.87616">
        <ele>830.24</ele>
        <time>2013-07-22T14:06:43Z</time>
      </trkpt>
      <trkpt lat="46.58735" lon="5.8761">
        <ele>829.27</ele>
        <time>2013-07-22T14:06:57Z</time>
      </trkpt>
      <trkpt lat="46.58722" lon="5.87604">
        <ele>829.27</ele>
        <time>2013-07-22T14:07:10Z</time>
      </trkpt>
      <trkpt lat="46.5871" lon="5.87598">
        <ele>829.27</ele>
        <time>2013-07-22T14:07:22Z</time>
      </trkpt>
      <trkpt lat="46.587" lon="5.87593">
        <ele>829.76</ele>
        <time>2013-07-22T14:07:33Z</time>
      </trkpt>
      <trkpt lat="46.58686" lon="5.87587">
        <ele>829.27</ele>
        <time>2013-07-22T14:07:47Z</time>
      </trkpt>
      <trkpt lat="46.58674" lon="5.87581">
        <ele>828.79</ele>
        <time>2013-07-22T14:08:00Z</time>
      </trkpt>
      <trkpt lat="46.58662" lon="5.87574">
        <ele>828.79</ele>
        <time>2013-07-22T14:08:11Z</time>
      </trkpt>
      <trkpt lat="46.58647" lon="5.87564">
        <ele>828.31</ele>
        <time>2013-07-22T14:08:25Z</time>
      </trkpt>
      <trkpt lat="46.58644" lon="5.87561">
        <ele>828.31</ele>
        <time>2013-07-22T14:08:29Z</time>
      </trkpt>
      <trkpt lat="46.58633" lon="5.87549">
        <ele>828.31</ele>
        <time>2013-07-22T14:08:45Z</time>
      </trkpt>
      <trkpt lat="46.5862" lon="5.87544">
        <ele>828.31</ele>
        <time>2013-07-22T14:08:57Z</time>
      </trkpt>
      <trkpt lat="46.58615" lon="5.87542">
        <ele>827.83</ele>
        <time>2013-07-22T14:09:05Z</time>
      </trkpt>
      <trkpt lat="46.58608" lon="5.87538">
        <ele>827.35</ele>
        <time>2013-07-22T14:09:10Z</time>
      </trkpt>
      <trkpt lat="46.58595" lon="5.87538">
        <ele>826.87</ele>
        <time>2013-07-22T14:09:22Z</time>
      </trkpt>
      <trkpt lat="46.58581" lon="5.87536">
        <ele>827.35</ele>
        <time>2013-07-22T14:09:34Z</time>
      </trkpt>
      <trkpt lat="46.5857" lon="5.87535">
        <ele>826.87</ele>
        <time>2013-07-22T14:09:47Z</time>
      </trkpt>
      <trkpt lat="46.58566" lon="5.87534">
        <ele>826.39</ele>
        <time>2013-07-22T14:10:04Z</time>
      </trkpt>
      <trkpt lat="46.58562" lon="5.87536">
        <ele>826.87</ele>
        <time>2013-07-22T14:10:08Z</time>
      </trkpt>
      <trkpt lat="46.5855" lon="5.8754">
        <ele>825.91</ele>
        <time>2013-07-22T14:10:22Z</time>
      </trkpt>
      <trkpt lat="46.58536" lon="5.87538">
        <ele>826.39</ele>
        <time>2013-07-22T14:10:36Z</time>
      </trkpt>
      <trkpt lat="46.58526" lon="5.87548">
        <ele>826.87</ele>
        <time>2013-07-22T14:10:54Z</time>
      </trkpt>
      <trkpt lat="46.58508" lon="5.87537">
        <ele>825.91</ele>
        <time>2013-07-22T14:11:10Z</time>
      </trkpt>
      <trkpt lat="46.585" lon="5.87522">
        <ele>825.43</ele>
        <time>2013-07-22T14:11:26Z</time>
      </trkpt>
      <trkpt lat="46.58492" lon="5.87513">
        <ele>824.95</ele>
        <time>2013-07-22T14:11:39Z</time>
      </trkpt>
      <trkpt lat="46.58486" lon="5.87504">
        <ele>825.43</ele>
        <time>2013-07-22T14:11:52Z</time>
      </trkpt>
      <trkpt lat="46.58495" lon="5.87514">
        <ele>825.43</ele>
        <time>2013-07-22T14:12:13Z</time>
      </trkpt>
      <trkpt lat="46.58493" lon="5.87515">
        <ele>824.95</ele>
        <time>2013-07-22T14:12:39Z</time>
      </trkpt>
      <trkpt lat="46.5849" lon="5.8751">
        <ele>824.47</ele>
        <time>2013-07-22T14:13:03Z</time>
      </trkpt>
      <trkpt lat="46.58489" lon="5.87516">
        <ele>824.95</ele>
        <time>2013-07-22T14:13:25Z</time>
      </trkpt>
      <trkpt lat="46.5848" lon="5.87503">
        <ele>825.43</ele>
        <time>2013-07-22T14:13:40Z</time>
      </trkpt>
      <trkpt lat="46.58487" lon="5.87508">
        <ele>824.47</ele>
        <time>2013-07-22T14:13:58Z</time>
      </trkpt>
      <trkpt lat="46.58488" lon="5.87506">
        <ele>824.95</ele>
        <time>2013-07-22T14:14:29Z</time>
      </trkpt>
      <trkpt lat="46.58484" lon="5.87496">
        <ele>824.95</ele>
        <time>2013-07-22T14:15:06Z</time>
      </trkpt>
      <trkpt lat="46.58466" lon="5.87492">
        <ele>825.91</ele>
        <time>2013-07-22T14:15:22Z</time>
      </trkpt>
      <trkpt lat="46.58456" lon="5.87488">
        <ele>824.95</ele>
        <time>2013-07-22T14:15:34Z</time>
      </trkpt>
      <trkpt lat="46.58463" lon="5.87489">
        <ele>823.99</ele>
        <time>2013-07-22T14:15:52Z</time>
      </trkpt>
      <trkpt lat="46.58438" lon="5.87471">
        <ele>823.03</ele>
        <time>2013-07-22T14:16:08Z</time>
      </trkpt>
      <trkpt lat="46.58425" lon="5.87463">
        <ele>823.03</ele>
        <time>2013-07-22T14:16:22Z</time>
      </trkpt>
      <trkpt lat="46.58416" lon="5.87468">
        <ele>823.03</ele>
        <time>2013-07-22T14:16:36Z</time>
      </trkpt>
      <trkpt lat="46.58406" lon="5.87463">
        <ele>822.06</ele>
        <time>2013-07-22T14:16:52Z</time>
      </trkpt>
      <trkpt lat="46.58396" lon="5.87449">
        <ele>822.55</ele>
        <time>2013-07-22T14:17:04Z</time>
      </trkpt>
      <trkpt lat="46.58395" lon="5.87445">
        <ele>822.55</ele>
        <time>2013-07-22T14:17:06Z</time>
      </trkpt>
      <trkpt lat="46.58386" lon="5.87429">
        <ele>822.55</ele>
        <time>2013-07-22T14:17:20Z</time>
      </trkpt>
      <trkpt lat="46.58377" lon="5.87416">
        <ele>822.55</ele>
        <time>2013-07-22T14:17:33Z</time>
      </trkpt>
      <trkpt lat="46.5837" lon="5.87404">
        <ele>822.06</ele>
        <time>2013-07-22T14:17:45Z</time>
      </trkpt>
      <trkpt lat="46.58358" lon="5.87386">
        <ele>822.06</ele>
        <time>2013-07-22T14:18:01Z</time>
      </trkpt>
      <trkpt lat="46.58355" lon="5.8737">
        <ele>821.58</ele>
        <time>2013-07-22T14:18:14Z</time>
      </trkpt>
      <trkpt lat="46.58354" lon="5.87353">
        <ele>823.03</ele>
        <time>2013-07-22T14:18:28Z</time>
      </trkpt>
      <trkpt lat="46.58351" lon="5.87339">
        <ele>823.03</ele>
        <time>2013-07-22T14:18:39Z</time>
      </trkpt>
      <trkpt lat="46.58345" lon="5.87349">
        <ele>823.03</ele>
        <time>2013-07-22T14:19:05Z</time>
      </trkpt>
      <trkpt lat="46.58347" lon="5.87346">
        <ele>822.55</ele>
        <time>2013-07-22T14:19:26Z</time>
      </trkpt>
      <trkpt lat="46.58347" lon="5.87318">
        <ele>821.58</ele>
        <time>2013-07-22T14:19:42Z</time>
      </trkpt>
      <trkpt lat="46.5834" lon="5.87301">
        <ele>821.1</ele>
        <time>2013-07-22T14:19:57Z</time>
      </trkpt>
      <trkpt lat="46.58343" lon="5.87291">
        <ele>821.1</ele>
        <time>2013-07-22T14:20:14Z</time>
      </trkpt>
      <trkpt lat="46.58344" lon="5.87274">
        <ele>822.06</ele>
        <time>2013-07-22T14:20:28Z</time>
      </trkpt>
      <trkpt lat="46.58343" lon="5.87267">
        <ele>821.58</ele>
        <time>2013-07-22T14:20:44Z</time>
      </trkpt>
      <trkpt lat="46.58344" lon="5.8725">
        <ele>821.1</ele>
        <time>2013-07-22T14:20:59Z</time>
      </trkpt>
      <trkpt lat="46.58342" lon="5.87222">
        <ele>821.58</ele>
        <time>2013-07-22T14:21:17Z</time>
      </trkpt>
      <trkpt lat="46.58341" lon="5.87205">
        <ele>821.1</ele>
        <time>2013-07-22T14:21:32Z</time>
      </trkpt>
      <trkpt lat="46.5834" lon="5.87193">
        <ele>820.62</ele>
        <time>2013-07-22T14:21:45Z</time>
      </trkpt>
      <trkpt lat="46.58336" lon="5.87192">
        <ele>819.18</ele>
        <time>2013-07-22T14:22:02Z</time>
      </trkpt>
      <trkpt lat="46.5834" lon="5.87177">
        <ele>819.66</ele>
        <time>2013-07-22T14:22:24Z</time>
      </trkpt>
      <trkpt lat="46.58342" lon="5.87181">
        <ele>818.7</ele>
        <time>2013-07-22T14:22:40Z</time>
      </trkpt>
      <trkpt lat="46.58337" lon="5.87185">
        <ele>819.66</ele>
        <time>2013-07-22T14:22:54Z</time>
      </trkpt>
      <trkpt lat="46.5834" lon="5.87165">
        <ele>820.14</ele>
        <time>2013-07-22T14:23:10Z</time>
      </trkpt>
      <trkpt lat="46.58339" lon="5.87175">
        <ele>819.18</ele>
        <time>2013-07-22T14:23:34Z</time>
      </trkpt>
      <trkpt lat="46.58349" lon="5.87191">
        <ele>818.22</ele>
        <time>2013-07-22T14:23:48Z</time>
      </trkpt>
      <trkpt lat="46.58348" lon="5.87191">
        <ele>818.22</ele>
        <time>2013-07-22T14:24:10Z</time>
      </trkpt>
      <trkpt lat="46.58346" lon="5.87183">
        <ele>818.22</ele>
        <time>2013-07-22T14:24:28Z</time>
      </trkpt>
      <trkpt lat="46.58344" lon="5.87182">
        <ele>817.74</ele>
        <time>2013-07-22T14:24:40Z</time>
      </trkpt>
      <trkpt lat="46.58352" lon="5.87182">
        <ele>817.26</ele>
        <time>2013-07-22T14:24:56Z</time>
      </trkpt>
      <trkpt lat="46.58343" lon="5.87181">
        <ele>818.22</ele>
        <time>2013-07-22T14:25:14Z</time>
      </trkpt>
      <trkpt lat="46.58332" lon="5.87174">
        <ele>819.18</ele>
        <time>2013-07-22T14:25:28Z</time>
      </trkpt>
      <trkpt lat="46.58333" lon="5.87165">
        <ele>818.22</ele>
        <time>2013-07-22T14:25:42Z</time>
      </trkpt>
      <trkpt lat="46.58331" lon="5.8715">
        <ele>817.74</ele>
        <time>2013-07-22T14:25:57Z</time>
      </trkpt>
      <trkpt lat="46.58334" lon="5.87152">
        <ele>817.74</ele>
        <time>2013-07-22T14:26:19Z</time>
      </trkpt>
      <trkpt lat="46.58335" lon="5.87124">
        <ele>818.22</ele>
        <time>2013-07-22T14:26:36Z</time>
      </trkpt>
      <trkpt lat="46.58337" lon="5.87115">
        <ele>817.74</ele>
        <time>2013-07-22T14:26:54Z</time>
      </trkpt>
      <trkpt lat="46.58335" lon="5.87111">
        <ele>817.74</ele>
        <time>2013-07-22T14:27:15Z</time>
      </trkpt>
      <trkpt lat="46.58337" lon="5.87107">
        <ele>817.74</ele>
        <time>2013-07-22T14:27:34Z</time>
      </trkpt>
      <trkpt lat="46.58346" lon="5.87086">
        <ele>817.74</ele>
        <time>2013-07-22T14:27:51Z</time>
      </trkpt>
      <trkpt lat="46.58351" lon="5.87074">
        <ele>817.26</ele>
        <time>2013-07-22T14:28:08Z</time>
      </trkpt>
      <trkpt lat="46.58347" lon="5.87064">
        <ele>817.74</ele>
        <time>2013-07-22T14:28:23Z</time>
      </trkpt>
      <trkpt lat="46.58342" lon="5.87073">
        <ele>817.26</ele>
        <time>2013-07-22T14:28:41Z</time>
      </trkpt>
      <trkpt lat="46.5834" lon="5.87072">
        <ele>816.78</ele>
        <time>2013-07-22T14:29:11Z</time>
      </trkpt>
      <trkpt lat="46.58353" lon="5.87063">
        <ele>816.78</ele>
        <time>2013-07-22T14:29:28Z</time>
      </trkpt>
      <trkpt lat="46.58364" lon="5.87044">
        <ele>816.78</ele>
        <time>2013-07-22T14:29:45Z</time>
      </trkpt>
      <trkpt lat="46.58374" lon="5.87029">
        <ele>816.78</ele>
        <time>2013-07-22T14:30:01Z</time>
      </trkpt>
      <trkpt lat="46.58379" lon="5.87017">
        <ele>817.26</ele>
        <time>2013-07-22T14:30:18Z</time>
      </trkpt>
      <trkpt lat="46.58387" lon="5.87001">
        <ele>816.78</ele>
        <time>2013-07-22T14:30:33Z</time>
      </trkpt>
      <trkpt lat="46.58393" lon="5.86986">
        <ele>817.26</ele>
        <time>2013-07-22T14:30:49Z</time>
      </trkpt>
      <trkpt lat="46.58402" lon="5.86963">
        <ele>816.78</ele>
        <time>2013-07-22T14:31:04Z</time>
      </trkpt>
      <trkpt lat="46.5841" lon="5.86949">
        <ele>816.3</ele>
        <time>2013-07-22T14:31:18Z</time>
      </trkpt>
      <trkpt lat="46.58412" lon="5.8695">
        <ele>815.82</ele>
        <time>2013-07-22T14:31:31Z</time>
      </trkpt>
      <trkpt lat="46.58402" lon="5.86935">
        <ele>815.82</ele>
        <time>2013-07-22T14:31:55Z</time>
      </trkpt>
      <trkpt lat="46.5841" lon="5.8693">
        <ele>816.3</ele>
        <time>2013-07-22T14:32:10Z</time>
      </trkpt>
      <trkpt lat="46.58419" lon="5.86918">
        <ele>816.78</ele>
        <time>2013-07-22T14:32:23Z</time>
      </trkpt>
      <trkpt lat="46.58427" lon="5.869">
        <ele>816.78</ele>
        <time>2013-07-22T14:32:38Z</time>
      </trkpt>
      <trkpt lat="46.58435" lon="5.86885">
        <ele>816.3</ele>
        <time>2013-07-22T14:32:55Z</time>
      </trkpt>
      <trkpt lat="46.58437" lon="5.86866">
        <ele>816.78</ele>
        <time>2013-07-22T14:33:14Z</time>
      </trkpt>
      <trkpt lat="46.58445" lon="5.86849">
        <ele>817.26</ele>
        <time>2013-07-22T14:33:32Z</time>
      </trkpt>
      <trkpt lat="46.58447" lon="5.86839">
        <ele>817.26</ele>
        <time>2013-07-22T14:33:47Z</time>
      </trkpt>
      <trkpt lat="46.58444" lon="5.86813">
        <ele>818.22</ele>
        <time>2013-07-22T14:34:02Z</time>
      </trkpt>
      <trkpt lat="46.58442" lon="5.86791">
        <ele>819.18</ele>
        <time>2013-07-22T14:34:19Z</time>
      </trkpt>
      <trkpt lat="46.58444" lon="5.86761">
        <ele>820.14</ele>
        <time>2013-07-22T14:34:36Z</time>
      </trkpt>
      <trkpt lat="46.5844" lon="5.8674">
        <ele>820.62</ele>
        <time>2013-07-22T14:34:50Z</time>
      </trkpt>
      <trkpt lat="46.58436" lon="5.86723">
        <ele>821.58</ele>
        <time>2013-07-22T14:35:06Z</time>
      </trkpt>
      <trkpt lat="46.58431" lon="5.86702">
        <ele>823.99</ele>
        <time>2013-07-22T14:35:21Z</time>
      </trkpt>
      <trkpt lat="46.5843" lon="5.86686">
        <ele>824.95</ele>
        <time>2013-07-22T14:35:35Z</time>
      </trkpt>
      <trkpt lat="46.58424" lon="5.8667">
        <ele>825.91</ele>
        <time>2013-07-22T14:35:48Z</time>
      </trkpt>
      <trkpt lat="46.58425" lon="5.86651">
        <ele>825.91</ele>
        <time>2013-07-22T14:36:02Z</time>
      </trkpt>
      <trkpt lat="46.58435" lon="5.86633">
        <ele>826.87</ele>
        <time>2013-07-22T14:36:18Z</time>
      </trkpt>
      <trkpt lat="46.58443" lon="5.86626">
        <ele>826.87</ele>
        <time>2013-07-22T14:36:32Z</time>
      </trkpt>
      <trkpt lat="46.58442" lon="5.86638">
        <ele>826.87</ele>
        <time>2013-07-22T14:36:51Z</time>
      </trkpt>
      <trkpt lat="46.58446" lon="5.86649">
        <ele>826.87</ele>
        <time>2013-07-22T14:37:07Z</time>
      </trkpt>
      <trkpt lat="46.58453" lon="5.86666">
        <ele>826.39</ele>
        <time>2013-07-22T14:37:22Z</time>
      </trkpt>
      <trkpt lat="46.5846" lon="5.8668">
        <ele>824.95</ele>
        <time>2013-07-22T14:37:35Z</time>
      </trkpt>
      <trkpt lat="46.58468" lon="5.86699">
        <ele>824.95</ele>
        <time>2013-07-22T14:37:51Z</time>
      </trkpt>
      <trkpt lat="46.58469" lon="5.86705">
        <ele>824.95</ele>
        <time>2013-07-22T14:37:55Z</time>
      </trkpt>
      <trkpt lat="46.58477" lon="5.86726">
        <ele>823.99</ele>
        <time>2013-07-22T14:38:10Z</time>
      </trkpt>
      <trkpt lat="46.58488" lon="5.8674">
        <ele>823.51</ele>
        <time>2013-07-22T14:38:23Z</time>
      </trkpt>
      <trkpt lat="46.58498" lon="5.86756">
        <ele>823.03</ele>
        <time>2013-07-22T14:38:36Z</time>
      </trkpt>
      <trkpt lat="46.58508" lon="5.86772">
        <ele>822.06</ele>
        <time>2013-07-22T14:38:50Z</time>
      </trkpt>
      <trkpt lat="46.58509" lon="5.86772">
        <ele>822.55</ele>
        <time>2013-07-22T14:38:51Z</time>
      </trkpt>
      <trkpt lat="46.58514" lon="5.86778">
        <ele>822.06</ele>
        <time>2013-07-22T14:38:58Z</time>
      </trkpt>
      <trkpt lat="46.58528" lon="5.86784">
        <ele>821.1</ele>
        <time>2013-07-22T14:39:14Z</time>
      </trkpt>
      <trkpt lat="46.58536" lon="5.86798">
        <ele>821.1</ele>
        <time>2013-07-22T14:39:28Z</time>
      </trkpt>
      <trkpt lat="46.58529" lon="5.86793">
        <ele>821.1</ele>
        <time>2013-07-22T14:39:39Z</time>
      </trkpt>
      <trkpt lat="46.58523" lon="5.868">
        <ele>820.62</ele>
        <time>2013-07-22T14:39:52Z</time>
      </trkpt>
      <trkpt lat="46.58514" lon="5.8681">
        <ele>820.14</ele>
        <time>2013-07-22T14:40:17Z</time>
      </trkpt>
      <trkpt lat="46.58518" lon="5.86814">
        <ele>820.62</ele>
        <time>2013-07-22T14:40:32Z</time>
      </trkpt>
      <trkpt lat="46.58522" lon="5.86802">
        <ele>820.62</ele>
        <time>2013-07-22T14:40:56Z</time>
      </trkpt>
      <trkpt lat="46.58528" lon="5.86784">
        <ele>822.55</ele>
        <time>2013-07-22T14:41:08Z</time>
      </trkpt>
      <trkpt lat="46.5854" lon="5.86805">
        <ele>822.55</ele>
        <time>2013-07-22T14:41:25Z</time>
      </trkpt>
      <trkpt lat="46.58554" lon="5.86812">
        <ele>822.06</ele>
        <time>2013-07-22T14:41:38Z</time>
      </trkpt>
      <trkpt lat="46.58571" lon="5.86815">
        <ele>820.62</ele>
        <time>2013-07-22T14:41:53Z</time>
      </trkpt>
      <trkpt lat="46.5859" lon="5.86815">
        <ele>820.62</ele>
        <time>2013-07-22T14:42:10Z</time>
      </trkpt>
      <trkpt lat="46.58606" lon="5.86819">
        <ele>821.1</ele>
        <time>2013-07-22T14:42:28Z</time>
      </trkpt>
      <trkpt lat="46.58619" lon="5.86832">
        <ele>820.62</ele>
        <time>2013-07-22T14:42:43Z</time>
      </trkpt>
      <trkpt lat="46.58625" lon="5.86839">
        <ele>821.1</ele>
        <time>2013-07-22T14:42:50Z</time>
      </trkpt>
      <trkpt lat="46.58632" lon="5.86844">
        <ele>821.1</ele>
        <time>2013-07-22T14:42:57Z</time>
      </trkpt>
      <trkpt lat="46.5865" lon="5.86859">
        <ele>820.62</ele>
        <time>2013-07-22T14:43:14Z</time>
      </trkpt>
      <trkpt lat="46.58658" lon="5.86873">
        <ele>820.14</ele>
        <time>2013-07-22T14:43:31Z</time>
      </trkpt>
      <trkpt lat="46.58659" lon="5.86874">
        <ele>820.62</ele>
        <time>2013-07-22T14:43:33Z</time>
      </trkpt>
      <trkpt lat="46.58671" lon="5.86885">
        <ele>819.18</ele>
        <time>2013-07-22T14:43:48Z</time>
      </trkpt>
      <trkpt lat="46.58669" lon="5.86887">
        <ele>819.18</ele>
        <time>2013-07-22T14:44:08Z</time>
      </trkpt>
      <trkpt lat="46.58673" lon="5.86882">
        <ele>819.18</ele>
        <time>2013-07-22T14:44:22Z</time>
      </trkpt>
      <trkpt lat="46.58672" lon="5.86883">
        <ele>819.18</ele>
        <time>2013-07-22T14:44:38Z</time>
      </trkpt>
      <trkpt lat="46.58674" lon="5.86886">
        <ele>820.14</ele>
        <time>2013-07-22T14:44:53Z</time>
      </trkpt>
      <trkpt lat="46.5868" lon="5.86881">
        <ele>819.18</ele>
        <time>2013-07-22T14:45:10Z</time>
      </trkpt>
      <trkpt lat="46.58682" lon="5.86879">
        <ele>819.18</ele>
        <time>2013-07-22T14:45:31Z</time>
      </trkpt>
      <trkpt lat="46.58685" lon="5.86882">
        <ele>820.62</ele>
        <time>2013-07-22T14:45:52Z</time>
      </trkpt>
      <trkpt lat="46.58687" lon="5.86885">
        <ele>820.14</ele>
        <time>2013-07-22T14:46:11Z</time>
      </trkpt>
      <trkpt lat="46.58686" lon="5.86884">
        <ele>821.1</ele>
        <time>2013-07-22T14:46:28Z</time>
      </trkpt>
      <trkpt lat="46.58682" lon="5.86899">
        <ele>821.1</ele>
        <time>2013-07-22T14:46:49Z</time>
      </trkpt>
      <trkpt lat="46.58689" lon="5.86887">
        <ele>821.1</ele>
        <time>2013-07-22T14:47:05Z</time>
      </trkpt>
      <trkpt lat="46.58692" lon="5.86887">
        <ele>821.58</ele>
        <time>2013-07-22T14:47:20Z</time>
      </trkpt>
      <trkpt lat="46.58689" lon="5.869">
        <ele>821.1</ele>
        <time>2013-07-22T14:47:35Z</time>
      </trkpt>
      <trkpt lat="46.58688" lon="5.86908">
        <ele>820.62</ele>
        <time>2013-07-22T14:47:53Z</time>
      </trkpt>
      <trkpt lat="46.58695" lon="5.86904">
        <ele>821.58</ele>
        <time>2013-07-22T14:48:11Z</time>
      </trkpt>
      <trkpt lat="46.58697" lon="5.86906">
        <ele>821.58</ele>
        <time>2013-07-22T14:48:30Z</time>
      </trkpt>
      <trkpt lat="46.587" lon="5.86908">
        <ele>821.1</ele>
        <time>2013-07-22T14:48:45Z</time>
      </trkpt>
      <trkpt lat="46.58711" lon="5.86895">
        <ele>822.06</ele>
        <time>2013-07-22T14:49:02Z</time>
      </trkpt>
      <trkpt lat="46.58707" lon="5.86896">
        <ele>821.58</ele>
        <time>2013-07-22T14:49:20Z</time>
      </trkpt>
      <trkpt lat="46.58706" lon="5.86897">
        <ele>822.06</ele>
        <time>2013-07-22T14:49:40Z</time>
      </trkpt>
      <trkpt lat="46.58706" lon="5.86898">
        <ele>821.58</ele>
        <time>2013-07-22T14:49:57Z</time>
      </trkpt>
      <trkpt lat="46.58706" lon="5.86889">
        <ele>821.58</ele>
        <time>2013-07-22T14:50:14Z</time>
      </trkpt>
      <trkpt lat="46.58705" lon="5.86897">
        <ele>821.58</ele>
        <time>2013-07-22T14:50:27Z</time>
      </trkpt>
      <trkpt lat="46.58708" lon="5.86905">
        <ele>821.1</ele>
        <time>2013-07-22T14:50:42Z</time>
      </trkpt>
      <trkpt lat="46.5872" lon="5.86904">
        <ele>821.58</ele>
        <time>2013-07-22T14:51:02Z</time>
      </trkpt>
      <trkpt lat="46.58727" lon="5.86907">
        <ele>820.62</ele>
        <time>2013-07-22T14:51:18Z</time>
      </trkpt>
      <trkpt lat="46.58735" lon="5.86909">
        <ele>820.62</ele>
        <time>2013-07-22T14:51:35Z</time>
      </trkpt>
      <trkpt lat="46.58734" lon="5.86909">
        <ele>820.62</ele>
        <time>2013-07-22T14:51:51Z</time>
      </trkpt>
      <trkpt lat="46.58735" lon="5.86908">
        <ele>819.66</ele>
        <time>2013-07-22T14:52:07Z</time>
      </trkpt>
      <trkpt lat="46.58729" lon="5.86905">
        <ele>820.14</ele>
        <time>2013-07-22T14:52:29Z</time>
      </trkpt>
      <trkpt lat="46.58728" lon="5.86895">
        <ele>819.18</ele>
        <time>2013-07-22T14:52:50Z</time>
      </trkpt>
      <trkpt lat="46.5873" lon="5.869">
        <ele>820.14</ele>
        <time>2013-07-22T14:53:11Z</time>
      </trkpt>
      <trkpt lat="46.58749" lon="5.86914">
        <ele>819.66</ele>
        <time>2013-07-22T14:53:27Z</time>
      </trkpt>
      <trkpt lat="46.58763" lon="5.86917">
        <ele>820.14</ele>
        <time>2013-07-22T14:53:41Z</time>
      </trkpt>
      <trkpt lat="46.58781" lon="5.86917">
        <ele>819.66</ele>
        <time>2013-07-22T14:53:57Z</time>
      </trkpt>
      <trkpt lat="46.58786" lon="5.86916">
        <ele>819.66</ele>
        <time>2013-07-22T14:54:19Z</time>
      </trkpt>
      <trkpt lat="46.58794" lon="5.8692">
        <ele>820.14</ele>
        <time>2013-07-22T14:54:39Z</time>
      </trkpt>
      <trkpt lat="46.58797" lon="5.8693">
        <ele>819.66</ele>
        <time>2013-07-22T14:55:00Z</time>
      </trkpt>
      <trkpt lat="46.58805" lon="5.8693">
        <ele>820.14</ele>
        <time>2013-07-22T14:55:14Z</time>
      </trkpt>
      <trkpt lat="46.58809" lon="5.8692">
        <ele>820.14</ele>
        <time>2013-07-22T14:55:31Z</time>
      </trkpt>
      <trkpt lat="46.58805" lon="5.86916">
        <ele>819.66</ele>
        <time>2013-07-22T14:55:51Z</time>
      </trkpt>
      <trkpt lat="46.58812" lon="5.86934">
        <ele>819.66</ele>
        <time>2013-07-22T14:56:08Z</time>
      </trkpt>
      <trkpt lat="46.58816" lon="5.86933">
        <ele>819.18</ele>
        <time>2013-07-22T14:56:24Z</time>
      </trkpt>
      <trkpt lat="46.58816" lon="5.86929">
        <ele>819.66</ele>
        <time>2013-07-22T14:56:45Z</time>
      </trkpt>
      <trkpt lat="46.58819" lon="5.86933">
        <ele>820.14</ele>
        <time>2013-07-22T14:57:04Z</time>
      </trkpt>
      <trkpt lat="46.58827" lon="5.86941">
        <ele>819.66</ele>
        <time>2013-07-22T14:57:18Z</time>
      </trkpt>
      <trkpt lat="46.58839" lon="5.86948">
        <ele>820.14</ele>
        <time>2013-07-22T14:57:34Z</time>
      </trkpt>
      <trkpt lat="46.58842" lon="5.86942">
        <ele>819.66</ele>
        <time>2013-07-22T14:57:56Z</time>
      </trkpt>
      <trkpt lat="46.58844" lon="5.8693">
        <ele>819.66</ele>
        <time>2013-07-22T14:58:19Z</time>
      </trkpt>
      <trkpt lat="46.58846" lon="5.86941">
        <ele>819.18</ele>
        <time>2013-07-22T14:58:35Z</time>
      </trkpt>
      <trkpt lat="46.58854" lon="5.86952">
        <ele>819.66</ele>
        <time>2013-07-22T14:58:54Z</time>
      </trkpt>
      <trkpt lat="46.58863" lon="5.86948">
        <ele>820.14</ele>
        <time>2013-07-22T14:59:09Z</time>
      </trkpt>
      <trkpt lat="46.58867" lon="5.86946">
        <ele>820.14</ele>
        <time>2013-07-22T14:59:26Z</time>
      </trkpt>
      <trkpt lat="46.58878" lon="5.86952">
        <ele>820.14</ele>
        <time>2013-07-22T14:59:41Z</time>
      </trkpt>
      <trkpt lat="46.5889" lon="5.86961">
        <ele>821.1</ele>
        <time>2013-07-22T14:59:56Z</time>
      </trkpt>
      <trkpt lat="46.58904" lon="5.86961">
        <ele>821.58</ele>
        <time>2013-07-22T15:00:15Z</time>
      </trkpt>
      <trkpt lat="46.58918" lon="5.8696">
        <ele>822.06</ele>
        <time>2013-07-22T15:00:31Z</time>
      </trkpt>
      <trkpt lat="46.58917" lon="5.86955">
        <ele>821.58</ele>
        <time>2013-07-22T15:00:45Z</time>
      </trkpt>
      <trkpt lat="46.58913" lon="5.86963">
        <ele>821.1</ele>
        <time>2013-07-22T15:00:51Z</time>
      </trkpt>
      <trkpt lat="46.58904" lon="5.8697">
        <ele>822.06</ele>
        <time>2013-07-22T15:01:05Z</time>
      </trkpt>
      <trkpt lat="46.58922" lon="5.86956">
        <ele>822.06</ele>
        <time>2013-07-22T15:01:25Z</time>
      </trkpt>
      <trkpt lat="46.58924" lon="5.86952">
        <ele>822.06</ele>
        <time>2013-07-22T15:01:42Z</time>
      </trkpt>
      <trkpt lat="46.58931" lon="5.86966">
        <ele>821.58</ele>
        <time>2013-07-22T15:01:55Z</time>
      </trkpt>
      <trkpt lat="46.58947" lon="5.86965">
        <ele>822.55</ele>
        <time>2013-07-22T15:02:13Z</time>
      </trkpt>
      <trkpt lat="46.58954" lon="5.86966">
        <ele>822.55</ele>
        <time>2013-07-22T15:02:32Z</time>
      </trkpt>
      <trkpt lat="46.58966" lon="5.86979">
        <ele>823.51</ele>
        <time>2013-07-22T15:02:50Z</time>
      </trkpt>
      <trkpt lat="46.58971" lon="5.86983">
        <ele>823.99</ele>
        <time>2013-07-22T15:03:05Z</time>
      </trkpt>
      <trkpt lat="46.58975" lon="5.86983">
        <ele>823.51</ele>
        <time>2013-07-22T15:03:18Z</time>
      </trkpt>
      <trkpt lat="46.58969" lon="5.86981">
        <ele>823.03</ele>
        <time>2013-07-22T15:03:37Z</time>
      </trkpt>
      <trkpt lat="46.58972" lon="5.86985">
        <ele>823.99</ele>
        <time>2013-07-22T15:04:00Z</time>
      </trkpt>
      <trkpt lat="46.5898" lon="5.86984">
        <ele>823.99</ele>
        <time>2013-07-22T15:04:18Z</time>
      </trkpt>
      <trkpt lat="46.58982" lon="5.86986">
        <ele>823.51</ele>
        <time>2013-07-22T15:04:36Z</time>
      </trkpt>
      <trkpt lat="46.58992" lon="5.86993">
        <ele>823.99</ele>
        <time>2013-07-22T15:04:49Z</time>
      </trkpt>
      <trkpt lat="46.59004" lon="5.86998">
        <ele>823.99</ele>
        <time>2013-07-22T15:05:05Z</time>
      </trkpt>
      <trkpt lat="46.59015" lon="5.87004">
        <ele>823.99</ele>
        <time>2013-07-22T15:05:23Z</time>
      </trkpt>
      <trkpt lat="46.5903" lon="5.87016">
        <ele>823.03</ele>
        <time>2013-07-22T15:05:40Z</time>
      </trkpt>
      <trkpt lat="46.59044" lon="5.8703">
        <ele>822.06</ele>
        <time>2013-07-22T15:05:57Z</time>
      </trkpt>
      <trkpt lat="46.59053" lon="5.87042">
        <ele>821.1</ele>
        <time>2013-07-22T15:06:12Z</time>
      </trkpt>
      <trkpt lat="46.59058" lon="5.87049">
        <ele>822.06</ele>
        <time>2013-07-22T15:06:32Z</time>
      </trkpt>
      <trkpt lat="46.59064" lon="5.8707">
        <ele>821.1</ele>
        <time>2013-07-22T15:06:46Z</time>
      </trkpt>
      <trkpt lat="46.59071" lon="5.87088">
        <ele>820.14</ele>
        <time>2013-07-22T15:07:01Z</time>
      </trkpt>
      <trkpt lat="46.59077" lon="5.87106">
        <ele>819.66</ele>
        <time>2013-07-22T15:07:16Z</time>
      </trkpt>
      <trkpt lat="46.59079" lon="5.87124">
        <ele>820.14</ele>
        <time>2013-07-22T15:07:34Z</time>
      </trkpt>
      <trkpt lat="46.59084" lon="5.87144">
        <ele>819.66</ele>
        <time>2013-07-22T15:07:52Z</time>
      </trkpt>
      <trkpt lat="46.59095" lon="5.87163">
        <ele>820.14</ele>
        <time>2013-07-22T15:08:09Z</time>
      </trkpt>
      <trkpt lat="46.59097" lon="5.87175">
        <ele>819.18</ele>
        <time>2013-07-22T15:08:25Z</time>
      </trkpt>
      <trkpt lat="46.59097" lon="5.87178">
        <ele>819.66</ele>
        <time>2013-07-22T15:08:40Z</time>
      </trkpt>
      <trkpt lat="46.59097" lon="5.87188">
        <ele>819.18</ele>
        <time>2013-07-22T15:09:03Z</time>
      </trkpt>
      <trkpt lat="46.59091" lon="5.87185">
        <ele>818.7</ele>
        <time>2013-07-22T15:09:24Z</time>
      </trkpt>
      <trkpt lat="46.59098" lon="5.8719">
        <ele>818.7</ele>
        <time>2013-07-22T15:09:42Z</time>
      </trkpt>
      <trkpt lat="46.59096" lon="5.87195">
        <ele>819.18</ele>
        <time>2013-07-22T15:10:03Z</time>
      </trkpt>
      <trkpt lat="46.59095" lon="5.87192">
        <ele>818.7</ele>
        <time>2013-07-22T15:10:27Z</time>
      </trkpt>
      <trkpt lat="46.59104" lon="5.87191">
        <ele>819.66</ele>
        <time>2013-07-22T15:10:41Z</time>
      </trkpt>
      <trkpt lat="46.59109" lon="5.87195">
        <ele>819.66</ele>
        <time>2013-07-22T15:10:47Z</time>
      </trkpt>
      <trkpt lat="46.59111" lon="5.87194">
        <ele>819.66</ele>
        <time>2013-07-22T15:11:01Z</time>
      </trkpt>
      <trkpt lat="46.59125" lon="5.87201">
        <ele>819.18</ele>
        <time>2013-07-22T15:11:18Z</time>
      </trkpt>
      <trkpt lat="46.59142" lon="5.87203">
        <ele>819.18</ele>
        <time>2013-07-22T15:11:33Z</time>
      </trkpt>
      <trkpt lat="46.59157" lon="5.87206">
        <ele>818.7</ele>
        <time>2013-07-22T15:11:48Z</time>
      </trkpt>
      <trkpt lat="46.5917" lon="5.87212">
        <ele>818.22</ele>
        <time>2013-07-22T15:12:04Z</time>
      </trkpt>
      <trkpt lat="46.59177" lon="5.87213">
        <ele>818.22</ele>
        <time>2013-07-22T15:12:18Z</time>
      </trkpt>
      <trkpt lat="46.5919" lon="5.87224">
        <ele>817.74</ele>
        <time>2013-07-22T15:12:33Z</time>
      </trkpt>
      <trkpt lat="46.59205" lon="5.87236">
        <ele>816.78</ele>
        <time>2013-07-22T15:12:49Z</time>
      </trkpt>
      <trkpt lat="46.59212" lon="5.87241">
        <ele>816.78</ele>
        <time>2013-07-22T15:13:10Z</time>
      </trkpt>
      <trkpt lat="46.59221" lon="5.87245">
        <ele>816.3</ele>
        <time>2013-07-22T15:13:24Z</time>
      </trkpt>
      <trkpt lat="46.59222" lon="5.87246">
        <ele>816.3</ele>
        <time>2013-07-22T15:13:36Z</time>
      </trkpt>
      <trkpt lat="46.59229" lon="5.87257">
        <ele>816.3</ele>
        <time>2013-07-22T15:13:50Z</time>
      </trkpt>
      <trkpt lat="46.59242" lon="5.87264">
        <ele>815.82</ele>
        <time>2013-07-22T15:14:06Z</time>
      </trkpt>
      <trkpt lat="46.59251" lon="5.87267">
        <ele>815.82</ele>
        <time>2013-07-22T15:14:22Z</time>
      </trkpt>
      <trkpt lat="46.59254" lon="5.87271">
        <ele>815.34</ele>
        <time>2013-07-22T15:14:26Z</time>
      </trkpt>
      <trkpt lat="46.5927" lon="5.87282">
        <ele>815.34</ele>
        <time>2013-07-22T15:14:42Z</time>
      </trkpt>
      <trkpt lat="46.59285" lon="5.87292">
        <ele>814.37</ele>
        <time>2013-07-22T15:14:57Z</time>
      </trkpt>
      <trkpt lat="46.59298" lon="5.87302">
        <ele>813.41</ele>
        <time>2013-07-22T15:15:12Z</time>
      </trkpt>
      <trkpt lat="46.59311" lon="5.87311">
        <ele>813.41</ele>
        <time>2013-07-22T15:15:26Z</time>
      </trkpt>
      <trkpt lat="46.59311" lon="5.87311">
        <ele>813.41</ele>
        <time>2013-07-22T15:15:27Z</time>
      </trkpt>
      <trkpt lat="46.59324" lon="5.87315">
        <ele>812.93</ele>
        <time>2013-07-22T15:15:43Z</time>
      </trkpt>
      <trkpt lat="46.59341" lon="5.87329">
        <ele>812.93</ele>
        <time>2013-07-22T15:15:58Z</time>
      </trkpt>
      <trkpt lat="46.59354" lon="5.87341">
        <ele>812.93</ele>
        <time>2013-07-22T15:16:11Z</time>
      </trkpt>
      <trkpt lat="46.59365" lon="5.87349">
        <ele>812.93</ele>
        <time>2013-07-22T15:16:23Z</time>
      </trkpt>
      <trkpt lat="46.59366" lon="5.8735">
        <ele>812.93</ele>
        <time>2013-07-22T15:16:24Z</time>
      </trkpt>
      <trkpt lat="46.59382" lon="5.87361">
        <ele>812.93</ele>
        <time>2013-07-22T15:16:40Z</time>
      </trkpt>
      <trkpt lat="46.59383" lon="5.8736">
        <ele>805.24</ele>
        <time>2013-07-22T15:16:42Z</time>
      </trkpt>
      <trkpt lat="46.59384" lon="5.8736">
        <ele>816.78</ele>
        <time>2013-07-22T15:16:43Z</time>
      </trkpt>
      <trkpt lat="46.59385" lon="5.8736">
        <ele>813.41</ele>
        <time>2013-07-22T15:16:44Z</time>
      </trkpt>
      <trkpt lat="46.59387" lon="5.87361">
        <ele>804.28</ele>
        <time>2013-07-22T15:16:47Z</time>
      </trkpt>
      <trkpt lat="46.59388" lon="5.87362">
        <ele>814.85</ele>
        <time>2013-07-22T15:16:48Z</time>
      </trkpt>
      <trkpt lat="46.59388" lon="5.87362">
        <ele>810.05</ele>
        <time>2013-07-22T15:16:49Z</time>
      </trkpt>
      <trkpt lat="46.59389" lon="5.87363">
        <ele>816.3</ele>
        <time>2013-07-22T15:16:50Z</time>
      </trkpt>
      <trkpt lat="46.5939" lon="5.87365">
        <ele>812.93</ele>
        <time>2013-07-22T15:16:51Z</time>
      </trkpt>
      <trkpt lat="46.59407" lon="5.87377">
        <ele>812.45</ele>
        <time>2013-07-22T15:17:06Z</time>
      </trkpt>
      <trkpt lat="46.59416" lon="5.87394">
        <ele>811.49</ele>
        <time>2013-07-22T15:17:17Z</time>
      </trkpt>
      <trkpt lat="46.59417" lon="5.87392">
        <ele>811.49</ele>
        <time>2013-07-22T15:17:30Z</time>
      </trkpt>
      <trkpt lat="46.59418" lon="5.87409">
        <ele>811.01</ele>
        <time>2013-07-22T15:17:47Z</time>
      </trkpt>
      <trkpt lat="46.5942" lon="5.87406">
        <ele>811.01</ele>
        <time>2013-07-22T15:18:07Z</time>
      </trkpt>
      <trkpt lat="46.5942" lon="5.87423">
        <ele>811.01</ele>
        <time>2013-07-22T15:18:25Z</time>
      </trkpt>
      <trkpt lat="46.59419" lon="5.87433">
        <ele>811.01</ele>
        <time>2013-07-22T15:18:37Z</time>
      </trkpt>
      <trkpt lat="46.59425" lon="5.87438">
        <ele>811.01</ele>
        <time>2013-07-22T15:18:57Z</time>
      </trkpt>
      <trkpt lat="46.59404" lon="5.87433">
        <ele>811.01</ele>
        <time>2013-07-22T15:19:09Z</time>
      </trkpt>
      <trkpt lat="46.5939" lon="5.87443">
        <ele>811.97</ele>
        <time>2013-07-22T15:19:25Z</time>
      </trkpt>
      <trkpt lat="46.59376" lon="5.87447">
        <ele>813.41</ele>
        <time>2013-07-22T15:19:40Z</time>
      </trkpt>
      <trkpt lat="46.59363" lon="5.87457">
        <ele>813.41</ele>
        <time>2013-07-22T15:19:56Z</time>
      </trkpt>
      <trkpt lat="46.5935" lon="5.87467">
        <ele>813.89</ele>
        <time>2013-07-22T15:20:11Z</time>
      </trkpt>
      <trkpt lat="46.59342" lon="5.8747">
        <ele>813.89</ele>
        <time>2013-07-22T15:20:25Z</time>
      </trkpt>
      <trkpt lat="46.59333" lon="5.87473">
        <ele>814.37</ele>
        <time>2013-07-22T15:20:32Z</time>
      </trkpt>
      <trkpt lat="46.59328" lon="5.87477">
        <ele>813.89</ele>
        <time>2013-07-22T15:20:41Z</time>
      </trkpt>
      <trkpt lat="46.59325" lon="5.8748">
        <ele>813.89</ele>
        <time>2013-07-22T15:20:47Z</time>
      </trkpt>
      <trkpt lat="46.59314" lon="5.87488">
        <ele>814.37</ele>
        <time>2013-07-22T15:21:00Z</time>
      </trkpt>
      <trkpt lat="46.59297" lon="5.87495">
        <ele>814.85</ele>
        <time>2013-07-22T15:21:14Z</time>
      </trkpt>
      <trkpt lat="46.59286" lon="5.87507">
        <ele>816.3</ele>
        <time>2013-07-22T15:21:31Z</time>
      </trkpt>
      <trkpt lat="46.59274" lon="5.87516">
        <ele>816.3</ele>
        <time>2013-07-22T15:21:46Z</time>
      </trkpt>
      <trkpt lat="46.59261" lon="5.87529">
        <ele>816.3</ele>
        <time>2013-07-22T15:22:04Z</time>
      </trkpt>
      <trkpt lat="46.59261" lon="5.87529">
        <ele>815.82</ele>
        <time>2013-07-22T15:22:07Z</time>
      </trkpt>
      <trkpt lat="46.5926" lon="5.87532">
        <ele>816.78</ele>
        <time>2013-07-22T15:22:10Z</time>
      </trkpt>
      <trkpt lat="46.59257" lon="5.87538">
        <ele>816.78</ele>
        <time>2013-07-22T15:22:17Z</time>
      </trkpt>
      <trkpt lat="46.59251" lon="5.8754">
        <ele>815.82</ele>
        <time>2013-07-22T15:22:33Z</time>
      </trkpt>
      <trkpt lat="46.5925" lon="5.87541">
        <ele>816.3</ele>
        <time>2013-07-22T15:22:55Z</time>
      </trkpt>
      <trkpt lat="46.59252" lon="5.87544">
        <ele>816.78</ele>
        <time>2013-07-22T15:23:04Z</time>
      </trkpt>
      <trkpt lat="46.59243" lon="5.87559">
        <ele>817.26</ele>
        <time>2013-07-22T15:23:19Z</time>
      </trkpt>
      <trkpt lat="46.59238" lon="5.87567">
        <ele>816.3</ele>
        <time>2013-07-22T15:23:34Z</time>
      </trkpt>
      <trkpt lat="46.59236" lon="5.87567">
        <ele>816.78</ele>
        <time>2013-07-22T15:23:55Z</time>
      </trkpt>
      <trkpt lat="46.59233" lon="5.87569">
        <ele>816.3</ele>
        <time>2013-07-22T15:24:17Z</time>
      </trkpt>
      <trkpt lat="46.59228" lon="5.87574">
        <ele>817.26</ele>
        <time>2013-07-22T15:24:31Z</time>
      </trkpt>
      <trkpt lat="46.59232" lon="5.8757">
        <ele>817.26</ele>
        <time>2013-07-22T15:24:53Z</time>
      </trkpt>
      <trkpt lat="46.59231" lon="5.87569">
        <ele>816.3</ele>
        <time>2013-07-22T15:25:15Z</time>
      </trkpt>
      <trkpt lat="46.59223" lon="5.87574">
        <ele>816.3</ele>
        <time>2013-07-22T15:25:30Z</time>
      </trkpt>
      <trkpt lat="46.59219" lon="5.87575">
        <ele>816.78</ele>
        <time>2013-07-22T15:25:38Z</time>
      </trkpt>
      <trkpt lat="46.59207" lon="5.87586">
        <ele>816.3</ele>
        <time>2013-07-22T15:25:51Z</time>
      </trkpt>
      <trkpt lat="46.59192" lon="5.8759">
        <ele>816.3</ele>
        <time>2013-07-22T15:26:05Z</time>
      </trkpt>
      <trkpt lat="46.59177" lon="5.87594">
        <ele>815.82</ele>
        <time>2013-07-22T15:26:19Z</time>
      </trkpt>
      <trkpt lat="46.59173" lon="5.87598">
        <ele>814.85</ele>
        <time>2013-07-22T15:26:33Z</time>
      </trkpt>
      <trkpt lat="46.59169" lon="5.87598">
        <ele>815.82</ele>
        <time>2013-07-22T15:26:49Z</time>
      </trkpt>
      <trkpt lat="46.59157" lon="5.87608">
        <ele>815.34</ele>
        <time>2013-07-22T15:27:04Z</time>
      </trkpt>
      <trkpt lat="46.59145" lon="5.87614">
        <ele>814.85</ele>
        <time>2013-07-22T15:27:18Z</time>
      </trkpt>
      <trkpt lat="46.59139" lon="5.87618">
        <ele>814.37</ele>
        <time>2013-07-22T15:27:34Z</time>
      </trkpt>
      <trkpt lat="46.59141" lon="5.87622">
        <ele>814.37</ele>
        <time>2013-07-22T15:27:43Z</time>
      </trkpt>
      <trkpt lat="46.59136" lon="5.87641">
        <ele>814.37</ele>
        <time>2013-07-22T15:27:55Z</time>
      </trkpt>
      <trkpt lat="46.59135" lon="5.87654">
        <ele>813.89</ele>
        <time>2013-07-22T15:28:10Z</time>
      </trkpt>
      <trkpt lat="46.59128" lon="5.8765">
        <ele>814.37</ele>
        <time>2013-07-22T15:28:24Z</time>
      </trkpt>
      <trkpt lat="46.5912" lon="5.87657">
        <ele>814.37</ele>
        <time>2013-07-22T15:28:41Z</time>
      </trkpt>
      <trkpt lat="46.5911" lon="5.87669">
        <ele>813.89</ele>
        <time>2013-07-22T15:28:56Z</time>
      </trkpt>
      <trkpt lat="46.59097" lon="5.87673">
        <ele>813.89</ele>
        <time>2013-07-22T15:29:12Z</time>
      </trkpt>
      <trkpt lat="46.59086" lon="5.87673">
        <ele>813.41</ele>
        <time>2013-07-22T15:29:30Z</time>
      </trkpt>
      <trkpt lat="46.59077" lon="5.8767">
        <ele>813.41</ele>
        <time>2013-07-22T15:29:47Z</time>
      </trkpt>
      <trkpt lat="46.59078" lon="5.87666">
        <ele>813.41</ele>
        <time>2013-07-22T15:30:09Z</time>
      </trkpt>
      <trkpt lat="46.59057" lon="5.87659">
        <ele>812.45</ele>
        <time>2013-07-22T15:30:23Z</time>
      </trkpt>
      <trkpt lat="46.59043" lon="5.87654">
        <ele>812.45</ele>
        <time>2013-07-22T15:30:38Z</time>
      </trkpt>
      <trkpt lat="46.59044" lon="5.87654">
        <ele>811.97</ele>
        <time>2013-07-22T15:30:53Z</time>
      </trkpt>
      <trkpt lat="46.59039" lon="5.87656">
        <ele>812.45</ele>
        <time>2013-07-22T15:31:10Z</time>
      </trkpt>
      <trkpt lat="46.59039" lon="5.87651">
        <ele>811.49</ele>
        <time>2013-07-22T15:31:36Z</time>
      </trkpt>
      <trkpt lat="46.59034" lon="5.87649">
        <ele>811.49</ele>
        <time>2013-07-22T15:31:58Z</time>
      </trkpt>
      <trkpt lat="46.59031" lon="5.87645">
        <ele>811.97</ele>
        <time>2013-07-22T15:32:14Z</time>
      </trkpt>
      <trkpt lat="46.59032" lon="5.87647">
        <ele>811.01</ele>
        <time>2013-07-22T15:32:26Z</time>
      </trkpt>
      <trkpt lat="46.59035" lon="5.87654">
        <ele>811.97</ele>
        <time>2013-07-22T15:32:43Z</time>
      </trkpt>
      <trkpt lat="46.59037" lon="5.87659">
        <ele>811.01</ele>
        <time>2013-07-22T15:33:04Z</time>
      </trkpt>
      <trkpt lat="46.59034" lon="5.87652">
        <ele>811.97</ele>
        <time>2013-07-22T15:33:18Z</time>
      </trkpt>
      <trkpt lat="46.59029" lon="5.87656">
        <ele>811.49</ele>
        <time>2013-07-22T15:33:47Z</time>
      </trkpt>
      <trkpt lat="46.5903" lon="5.87658">
        <ele>811.49</ele>
        <time>2013-07-22T15:34:06Z</time>
      </trkpt>
      <trkpt lat="46.59029" lon="5.87649">
        <ele>811.49</ele>
        <time>2013-07-22T15:34:29Z</time>
      </trkpt>
      <trkpt lat="46.59028" lon="5.87654">
        <ele>810.05</ele>
        <time>2013-07-22T15:34:39Z</time>
      </trkpt>
      <trkpt lat="46.59028" lon="5.87656">
        <ele>811.97</ele>
        <time>2013-07-22T15:34:41Z</time>
      </trkpt>
      <trkpt lat="46.59026" lon="5.87658">
        <ele>813.41</ele>
        <time>2013-07-22T15:34:44Z</time>
      </trkpt>
      <trkpt lat="46.59025" lon="5.87659">
        <ele>811.97</ele>
        <time>2013-07-22T15:34:45Z</time>
      </trkpt>
      <trkpt lat="46.5903" lon="5.87643">
        <ele>811.97</ele>
        <time>2013-07-22T15:35:00Z</time>
      </trkpt>
      <trkpt lat="46.59024" lon="5.87639">
        <ele>811.97</ele>
        <time>2013-07-22T15:35:11Z</time>
      </trkpt>
      <trkpt lat="46.59015" lon="5.87643">
        <ele>811.49</ele>
        <time>2013-07-22T15:35:27Z</time>
      </trkpt>
      <trkpt lat="46.59013" lon="5.8763">
        <ele>810.53</ele>
        <time>2013-07-22T15:35:45Z</time>
      </trkpt>
      <trkpt lat="46.58994" lon="5.87624">
        <ele>810.53</ele>
        <time>2013-07-22T15:36:03Z</time>
      </trkpt>
      <trkpt lat="46.5898" lon="5.87619">
        <ele>810.53</ele>
        <time>2013-07-22T15:36:18Z</time>
      </trkpt>
      <trkpt lat="46.58973" lon="5.87618">
        <ele>810.53</ele>
        <time>2013-07-22T15:36:26Z</time>
      </trkpt>
      <trkpt lat="46.58964" lon="5.87611">
        <ele>810.05</ele>
        <time>2013-07-22T15:36:31Z</time>
      </trkpt>
      <trkpt lat="46.58952" lon="5.87606">
        <ele>809.57</ele>
        <time>2013-07-22T15:36:40Z</time>
      </trkpt>
      <trkpt lat="46.58941" lon="5.87609">
        <ele>810.05</ele>
        <time>2013-07-22T15:36:55Z</time>
      </trkpt>
    </trkseg>
  </trk>
</gpx>